Main page
METAR-TAF:

METAR-TAF

Airports :

Kavala International Airport

Kavala, Greece

latitude: 40-59N, longitude: 024-36E, elevation: 5 m

Current weather observation

The report was made 25 minutes ago, at 07:50 UTC
Wind 10 kt from the East
Temperature 24°C
Humidity 44%
Pressure 1015 hPa
Visibility 10 km or more
Few clouds at a height of 3000 ft

METAR: LGKV 250750Z 09010KT 9999 FEW030 24/11 Q1015

Time: 11:15 (08:15 UTC)

Forecast

The report was made 3 hours and 15 minutes ago, at 05:00 UTC
Forecast valid from 25 at 06 UTC to 25 at 15 UTC
Wind 10 kt from the East/Northeast
Visibility 10 km or more
Few clouds at a height of 3000 ft
Scattered clouds at a height of 8000 ft
Probability 30% :
Temporary
from 25 at 09 UTC to 25 at 15 UTC
Visibility: 4000 m
Few clouds at a height of 1800 ft, Cumulonimbus.
Scattered clouds at a height of 2000 ft
Broken clouds at a height of 7000 ft
rain showers

TAF: LGKV 250500Z 2506/2515 06010KT 9999 FEW030 SCT080 PROB30 TEMPO 2509/2515 4000 SHRA FEW018CB SCT020 BKN070

Weather observations and forecasts of more than 4000 airports (METAR and TAF reports).

The available stations are represented by yellow and red dots on the map.

Hover mouse over dot to see the name of the station.

Then click to see weather observations and forecasts.

To change the map : click on the green buttons with a black cross to zoom in, on the green button with a dash to zoom out, or on the green arrows for adjacent maps.


METAR-TAF: